createdAt,value
2018-10-12T00:03:42.836Z,15.7
2018-10-12T00:08:43.208Z,15.7
2018-10-12T00:13:45.442Z,15.7
2018-10-12T00:18:47.762Z,15.6
2018-10-12T00:23:50.090Z,15.6
2018-10-12T00:28:52.342Z,15.5
2018-10-12T00:33:54.634Z,15.5
2018-10-12T00:38:56.841Z,15.5
2018-10-12T00:43:59.342Z,15.4
2018-10-12T00:49:02.782Z,15.3
2018-10-12T00:54:03.821Z,15.3
2018-10-12T00:59:06.195Z,15.2
2018-10-12T01:04:08.479Z,15.2
2018-10-12T01:09:10.859Z,15.1
2018-10-12T01:14:13.019Z,15.1
2018-10-12T01:19:15.388Z,15.1
2018-10-12T01:24:17.558Z,15
2018-10-12T01:29:19.888Z,15
2018-10-12T01:34:22.238Z,14.9
2018-10-12T01:39:24.505Z,14.8
2018-10-12T01:44:26.684Z,14.8
2018-10-12T01:49:29.086Z,14.8
2018-10-12T01:54:31.457Z,14.8
2018-10-12T01:59:33.656Z,14.8
2018-10-12T02:09:38.361Z,14.7
2018-10-12T02:14:40.553Z,14.7
2018-10-12T02:19:42.813Z,14.6
2018-10-12T02:24:45.079Z,14.6
2018-10-12T02:29:47.425Z,14.5
2018-10-12T02:34:49.658Z,14.5
2018-10-12T02:39:52.087Z,14.4
2018-10-12T02:44:55.283Z,14.4
2018-10-12T02:49:56.547Z,14.4
2018-10-12T02:54:59.009Z,14.3
2018-10-12T03:00:01.227Z,14.3
2018-10-12T03:05:03.472Z,14.2
2018-10-12T03:10:05.735Z,14.2
2018-10-12T03:15:09.184Z,14.1
2018-10-12T03:20:10.442Z,14.1
2018-10-12T03:25:12.757Z,14
2018-10-12T03:30:14.926Z,14
2018-10-12T03:35:17.259Z,13.9
2018-10-12T03:40:19.710Z,13.9
2018-10-12T03:45:21.841Z,13.9
2018-10-12T03:50:24.155Z,13.8
2018-10-12T03:55:26.416Z,13.7
2018-10-12T04:00:28.730Z,13.7
2018-10-12T04:05:31.011Z,13.7
2018-10-12T04:10:33.247Z,13.7
2018-10-12T04:15:35.539Z,13.7
2018-10-12T04:20:37.883Z,13.7
2018-10-12T04:25:40.128Z,13.6
2018-10-12T04:30:42.520Z,13.6
2018-10-12T04:35:44.849Z,13.6
2018-10-12T04:40:47.012Z,13.6
2018-10-12T04:45:49.365Z,13.5
2018-10-12T04:50:52.981Z,13.5
2018-10-12T04:55:54.078Z,13.6
2018-10-12T05:00:58.675Z,13.5
2018-10-12T05:05:58.529Z,13.5
2018-10-12T05:11:00.933Z,13.5
2018-10-12T05:16:03.150Z,13.5
2018-10-12T05:21:05.375Z,13.5
2018-10-12T05:26:07.774Z,13.6
2018-10-12T05:31:10.157Z,13.5
2018-10-12T05:36:12.435Z,13.5
2018-10-12T05:41:14.677Z,13.5
2018-10-12T05:46:16.951Z,13.5
2018-10-12T05:51:19.208Z,13.5
2018-10-12T05:56:21.497Z,13.5
2018-10-12T06:01:23.875Z,13.5
2018-10-12T06:06:26.079Z,13.5
2018-10-12T06:11:28.430Z,13.6
2018-10-12T06:16:30.798Z,13.7
2018-10-12T06:21:32.993Z,13.8
2018-10-12T06:26:35.382Z,13.9
2018-10-12T06:31:38.514Z,14
2018-10-12T06:36:41.042Z,14.1
2018-10-12T06:41:42.286Z,14.3
2018-10-12T06:46:44.673Z,14.7
2018-10-12T06:51:46.760Z,15.2
2018-10-12T06:56:49.042Z,15.3
2018-10-12T07:01:51.272Z,15.1
2018-10-12T07:06:53.588Z,15.1
2018-10-12T07:11:55.987Z,15.1
2018-10-12T07:17:00.075Z,15.2
2018-10-12T07:22:00.465Z,15.3
2018-10-12T07:27:02.686Z,15.4
2018-10-12T07:32:05.094Z,15.5
2018-10-12T07:37:07.505Z,15.6
2018-10-12T07:42:09.677Z,15.6
2018-10-12T07:47:12.097Z,15.6
2018-10-12T07:52:14.292Z,15.7
2018-10-12T07:57:16.554Z,15.8
2018-10-12T08:02:18.871Z,16
2018-10-12T08:07:21.229Z,16.200001
2018-10-12T08:12:23.664Z,16.4
2018-10-12T08:17:25.726Z,16.6
2018-10-12T08:22:28.018Z,16.799999
2018-10-12T08:27:30.285Z,16.9
2018-10-12T08:32:32.714Z,17
2018-10-12T08:37:34.920Z,17.200001
2018-10-12T08:42:40.084Z,17.299999
2018-10-12T08:47:39.639Z,17.4
2018-10-12T08:52:41.991Z,17.5
2018-10-12T08:57:44.106Z,17.5
2018-10-12T09:02:46.454Z,17.700001
2018-10-12T09:07:48.773Z,17.700001
2018-10-12T09:12:50.943Z,17.799999
2018-10-12T09:17:54.369Z,18
2018-10-12T09:22:56.124Z,18.1
2018-10-12T09:27:57.863Z,18.200001
2018-10-12T09:33:00.228Z,18.299999
2018-10-12T09:38:02.544Z,18.4
2018-10-12T09:43:04.807Z,18.5
2018-10-12T09:48:09.397Z,18.5
2018-10-12T09:53:09.420Z,18.5
2018-10-12T09:58:11.664Z,18.700001
2018-10-12T10:03:13.940Z,18.9
2018-10-12T10:08:16.311Z,19
2018-10-12T10:13:18.530Z,19.1
2018-10-12T10:18:21.012Z,19.1
2018-10-12T10:23:23.171Z,19.200001
2018-10-12T10:28:25.386Z,19.299999
2018-10-12T10:33:27.726Z,19.4
2018-10-12T10:38:29.976Z,19.6
2018-10-12T10:43:32.242Z,19.799999
2018-10-12T10:48:34.583Z,20
2018-10-12T10:53:37.019Z,20.5
2018-10-12T10:58:39.208Z,21
2018-10-12T11:03:41.510Z,21.4
2018-10-12T11:08:43.776Z,21.5
2018-10-12T11:13:46.109Z,21.6
2018-10-12T11:18:48.270Z,21.9
2018-10-12T11:23:50.855Z,22.200001
2018-10-12T11:28:53.111Z,22.5
2018-10-12T11:33:55.268Z,22.799999
2018-10-12T11:38:57.504Z,23.1
2018-10-12T11:43:59.926Z,23.1
2018-10-12T11:49:02.240Z,23.200001
2018-10-12T11:54:04.382Z,23.5
2018-10-12T11:59:06.788Z,23.799999
2018-10-12T12:04:09.050Z,24.5
2018-10-12T12:09:11.332Z,24.9
2018-10-12T12:14:13.567Z,24.9
2018-10-12T12:19:15.884Z,24.9
2018-10-12T12:24:18.201Z,24.799999
2018-10-12T12:29:20.598Z,25
2018-10-12T12:34:22.897Z,24.799999
2018-10-12T12:39:25.289Z,24.6
2018-10-12T12:44:27.397Z,24.700001
2018-10-12T12:49:29.885Z,24.700001
2018-10-12T12:54:31.945Z,24.9
2018-10-12T12:59:38.423Z,24.9
2018-10-12T13:04:38.452Z,25
2018-10-12T13:09:38.977Z,25.1
2018-10-12T13:14:41.083Z,25
2018-10-12T13:19:43.523Z,24.799999
2018-10-12T13:24:45.718Z,24.5
2018-10-12T13:29:47.987Z,24.700001
2018-10-12T13:34:50.379Z,25.1
2018-10-12T13:39:52.741Z,24.9
2018-10-12T13:44:54.945Z,25
2018-10-12T13:49:57.159Z,25.299999
2018-10-12T13:54:59.409Z,25.4
2018-10-12T14:00:01.822Z,25.4
2018-10-12T14:05:04.114Z,24.9
2018-10-12T14:10:06.336Z,24.6
2018-10-12T14:15:09.768Z,24.200001
2018-10-12T14:20:10.931Z,23.799999
2018-10-12T14:25:13.241Z,23.5
2018-10-12T14:30:15.462Z,23.200001
2018-10-12T14:35:19.297Z,23.1
2018-10-12T14:40:20.063Z,23
2018-10-12T14:45:22.752Z,23
2018-10-12T14:50:24.629Z,23.200001
2018-10-12T14:55:27.080Z,23.299999
2018-10-12T15:00:29.297Z,23.299999
2018-10-12T15:05:31.621Z,23.200001
2018-10-12T15:10:33.827Z,23.1
2018-10-12T15:15:36.291Z,23
2018-10-12T15:20:38.444Z,22.9
2018-10-12T15:25:40.865Z,22.799999
2018-10-12T15:30:43.082Z,22.799999
2018-10-12T15:35:45.376Z,22.799999
2018-10-12T15:40:47.681Z,22.700001
2018-10-12T15:45:49.925Z,22.6
2018-10-12T15:50:52.332Z,22.6
2018-10-12T15:55:54.523Z,22.5
2018-10-12T16:00:56.769Z,22.4
2018-10-12T16:05:59.162Z,22.4
2018-10-12T16:11:02.900Z,22.299999
2018-10-12T16:16:03.760Z,22.200001
2018-10-12T16:21:06.126Z,22.1
2018-10-12T16:26:08.318Z,22
2018-10-12T16:31:10.566Z,21.9
2018-10-12T16:36:12.948Z,21.799999
2018-10-12T16:41:15.064Z,21.6
2018-10-12T16:46:17.406Z,21.5
2018-10-12T16:51:19.843Z,21.4
2018-10-12T16:56:23.155Z,21.299999
2018-10-12T17:01:24.424Z,21.1
2018-10-12T17:06:26.599Z,21
2018-10-12T17:11:28.958Z,21
2018-10-12T17:16:31.363Z,20.9
2018-10-12T17:21:33.508Z,20.9
2018-10-12T17:26:35.826Z,20.799999
2018-10-12T17:31:38.129Z,20.700001
2018-10-12T17:36:40.452Z,20.6
2018-10-12T17:41:42.910Z,20.5
2018-10-12T17:46:46.152Z,20.4
2018-10-12T17:51:47.303Z,20.299999
2018-10-12T17:56:49.594Z,20.200001
2018-10-12T18:01:51.887Z,20.200001
2018-10-12T18:06:54.187Z,20.1
2018-10-12T18:11:56.404Z,20
2018-10-12T18:16:58.718Z,19.9
2018-10-12T18:22:01.017Z,19.9
2018-10-12T18:27:03.380Z,19.799999
2018-10-12T18:32:05.659Z,19.799999
2018-10-12T18:37:07.955Z,19.799999
2018-10-12T18:42:10.418Z,19.700001
2018-10-12T18:47:12.481Z,19.6
2018-10-12T18:52:14.758Z,19.6
2018-10-12T18:57:17.203Z,19.6
2018-10-12T19:02:19.440Z,19.5
2018-10-12T19:07:21.646Z,19.5
2018-10-12T19:12:24.029Z,19.4
2018-10-12T19:17:26.317Z,19.4
2018-10-12T19:22:28.525Z,19.4
2018-10-12T19:27:32.705Z,19.4
2018-10-12T19:32:33.188Z,19.4
2018-10-12T19:37:35.498Z,19.299999
2018-10-12T19:42:37.794Z,19.299999
2018-10-12T19:47:40.086Z,19.4
2018-10-12T19:52:42.352Z,19.299999
2018-10-12T19:57:44.596Z,19.299999
2018-10-12T20:02:46.999Z,19.299999
2018-10-12T20:07:49.244Z,19.299999
2018-10-12T20:12:51.510Z,19.299999
2018-10-12T20:17:53.794Z,19.299999
2018-10-12T20:22:56.131Z,19.299999
2018-10-12T20:27:58.424Z,19.299999
2018-10-12T20:33:00.771Z,19.200001
2018-10-12T20:38:02.929Z,19.200001
2018-10-12T20:43:05.316Z,19.200001
2018-10-12T20:48:07.524Z,19.1
2018-10-12T20:53:09.934Z,19.1
2018-10-12T20:58:12.115Z,19
2018-10-12T21:03:14.569Z,18.9
2018-10-12T21:08:16.763Z,18.9
2018-10-12T21:13:19.172Z,18.9
2018-10-12T21:18:21.316Z,18.799999
2018-10-12T21:23:23.645Z,18.700001
2018-10-12T21:28:26.176Z,18.6
2018-10-12T21:33:28.204Z,18.5
2018-10-12T21:38:30.511Z,18.5
2018-10-12T21:43:32.832Z,18.4
2018-10-12T21:48:35.094Z,18.299999
2018-10-12T21:53:37.376Z,18.200001
2018-10-12T21:58:39.700Z,18.200001
2018-10-12T22:03:41.925Z,18.200001
2018-10-12T22:08:44.297Z,18.1
2018-10-12T22:13:46.645Z,18.1
2018-10-12T22:18:48.818Z,18
2018-10-12T22:23:51.247Z,18
2018-10-12T22:28:53.447Z,18
2018-10-12T22:33:55.704Z,17.9
2018-10-12T22:38:58.045Z,17.799999
2018-10-12T22:44:00.433Z,17.700001
2018-10-12T22:49:02.643Z,17.700001
2018-10-12T22:54:04.895Z,17.6
2018-10-12T22:59:07.342Z,17.5
2018-10-12T23:04:09.536Z,17.4
2018-10-12T23:09:13.646Z,17.200001
2018-10-12T23:14:14.166Z,17.1
2018-10-12T23:19:16.478Z,17
2018-10-12T23:24:18.737Z,17
2018-10-12T23:29:20.964Z,17
2018-10-12T23:34:23.431Z,17
2018-10-12T23:39:25.708Z,17
2018-10-12T23:44:27.917Z,17
2018-10-12T23:49:30.143Z,17
2018-10-12T23:54:32.605Z,17
2018-10-12T23:59:34.831Z,17.1
